sensor_id;sensor_type;location;lat;lon;timestamp;P1;durP1;ratioP1;P2;durP2;ratioP2
23678;SDS011;12016;51.668;6.874;2023-02-28T00:03:36;5.93;;;4.43;;
23678;SDS011;12016;51.668;6.874;2023-02-28T00:09:38;4.82;;;4.32;;
23678;SDS011;12016;51.668;6.874;2023-02-28T00:15:40;6.57;;;4.93;;
23678;SDS011;12016;51.668;6.874;2023-02-28T00:21:42;5.53;;;4.50;;
23678;SDS011;12016;51.668;6.874;2023-02-28T00:27:45;6.65;;;4.60;;
23678;SDS011;12016;51.668;6.874;2023-02-28T00:33:47;4.85;;;4.28;;
23678;SDS011;12016;51.668;6.874;2023-02-28T00:39:49;5.55;;;4.53;;
23678;SDS011;12016;51.668;6.874;2023-02-28T00:45:51;6.45;;;5.10;;
23678;SDS011;12016;51.668;6.874;2023-02-28T00:51:55;5.68;;;4.80;;
23678;SDS011;12016;51.668;6.874;2023-02-28T00:58:00;6.32;;;4.97;;
23678;SDS011;12016;51.668;6.874;2023-02-28T01:04:01;6.13;;;4.55;;
23678;SDS011;12016;51.668;6.874;2023-02-28T01:10:05;5.65;;;4.45;;
23678;SDS011;12016;51.668;6.874;2023-02-28T01:16:07;7.05;;;4.90;;
23678;SDS011;12016;51.668;6.874;2023-02-28T01:22:09;5.25;;;4.43;;
23678;SDS011;12016;51.668;6.874;2023-02-28T01:28:12;5.93;;;4.88;;
23678;SDS011;12016;51.668;6.874;2023-02-28T01:34:15;6.63;;;4.93;;
23678;SDS011;12016;51.668;6.874;2023-02-28T01:40:16;6.72;;;4.57;;
23678;SDS011;12016;51.668;6.874;2023-02-28T01:46:18;6.63;;;4.82;;
23678;SDS011;12016;51.668;6.874;2023-02-28T01:52:21;6.35;;;4.63;;
23678;SDS011;12016;51.668;6.874;2023-02-28T01:58:27;6.03;;;4.70;;
23678;SDS011;12016;51.668;6.874;2023-02-28T02:04:35;6.00;;;4.40;;
23678;SDS011;12016;51.668;6.874;2023-02-28T02:24:20;6.05;;;4.72;;
23678;SDS011;12016;51.668;6.874;2023-02-28T02:36:22;6.78;;;5.03;;
23678;SDS011;12016;51.668;6.874;2023-02-28T02:42:31;5.07;;;4.47;;
23678;SDS011;12016;51.668;6.874;2023-02-28T02:48:42;5.65;;;4.63;;
23678;SDS011;12016;51.668;6.874;2023-02-28T02:54:47;5.03;;;4.53;;
23678;SDS011;12016;51.668;6.874;2023-02-28T03:00:53;5.85;;;4.80;;
23678;SDS011;12016;51.668;6.874;2023-02-28T03:07:00;7.85;;;5.18;;
23678;SDS011;12016;51.668;6.874;2023-02-28T03:25:59;6.57;;;5.28;;
23678;SDS011;12016;51.668;6.874;2023-02-28T03:32:08;5.70;;;5.10;;
23678;SDS011;12016;51.668;6.874;2023-02-28T03:44:34;6.18;;;5.00;;
23678;SDS011;12016;51.668;6.874;2023-02-28T03:50:40;6.50;;;4.95;;
23678;SDS011;12016;51.668;6.874;2023-02-28T03:56:48;5.65;;;4.90;;
23678;SDS011;12016;51.668;6.874;2023-02-28T04:02:57;5.95;;;5.35;;
23678;SDS011;12016;51.668;6.874;2023-02-28T04:09:00;5.35;;;4.65;;
23678;SDS011;12016;51.668;6.874;2023-02-28T04:15:02;6.47;;;5.38;;
23678;SDS011;12016;51.668;6.874;2023-02-28T04:21:04;7.18;;;5.40;;
23678;SDS011;12016;51.668;6.874;2023-02-28T04:27:08;6.03;;;5.18;;
23678;SDS011;12016;51.668;6.874;2023-02-28T04:33:10;5.70;;;5.15;;
23678;SDS011;12016;51.668;6.874;2023-02-28T04:39:15;6.78;;;4.82;;
23678;SDS011;12016;51.668;6.874;2023-02-28T04:45:21;8.05;;;5.38;;
23678;SDS011;12016;51.668;6.874;2023-02-28T04:51:22;8.25;;;5.55;;
23678;SDS011;12016;51.668;6.874;2023-02-28T04:57:24;6.25;;;5.57;;
23678;SDS011;12016;51.668;6.874;2023-02-28T05:03:26;5.90;;;5.13;;
23678;SDS011;12016;51.668;6.874;2023-02-28T05:09:28;6.50;;;5.55;;
23678;SDS011;12016;51.668;6.874;2023-02-28T05:15:30;7.35;;;5.70;;
23678;SDS011;12016;51.668;6.874;2023-02-28T05:21:41;6.25;;;5.40;;
23678;SDS011;12016;51.668;6.874;2023-02-28T05:33:53;7.25;;;5.97;;
23678;SDS011;12016;51.668;6.874;2023-02-28T05:39:55;8.45;;;6.47;;
23678;SDS011;12016;51.668;6.874;2023-02-28T05:45:56;6.30;;;5.68;;
23678;SDS011;12016;51.668;6.874;2023-02-28T05:51:58;9.13;;;6.85;;
23678;SDS011;12016;51.668;6.874;2023-02-28T05:58:00;8.23;;;5.90;;
23678;SDS011;12016;51.668;6.874;2023-02-28T06:04:02;7.05;;;5.72;;
23678;SDS011;12016;51.668;6.874;2023-02-28T06:10:05;7.05;;;5.50;;
23678;SDS011;12016;51.668;6.874;2023-02-28T06:16:09;8.23;;;5.68;;
23678;SDS011;12016;51.668;6.874;2023-02-28T06:22:12;7.43;;;5.60;;
23678;SDS011;12016;51.668;6.874;2023-02-28T06:28:14;8.93;;;6.40;;
23678;SDS011;12016;51.668;6.874;2023-02-28T06:34:16;8.38;;;6.10;;
23678;SDS011;12016;51.668;6.874;2023-02-28T06:40:18;7.93;;;5.90;;
23678;SDS011;12016;51.668;6.874;2023-02-28T06:46:20;7.43;;;5.85;;
23678;SDS011;12016;51.668;6.874;2023-02-28T06:52:23;6.88;;;6.18;;
23678;SDS011;12016;51.668;6.874;2023-02-28T06:58:24;8.20;;;6.43;;
23678;SDS011;12016;51.668;6.874;2023-02-28T07:04:27;7.85;;;7.03;;
23678;SDS011;12016;51.668;6.874;2023-02-28T07:10:32;9.27;;;6.60;;
23678;SDS011;12016;51.668;6.874;2023-02-28T07:16:35;9.90;;;6.80;;
23678;SDS011;12016;51.668;6.874;2023-02-28T07:22:37;8.20;;;6.50;;
23678;SDS011;12016;51.668;6.874;2023-02-28T07:28:40;8.57;;;6.28;;
23678;SDS011;12016;51.668;6.874;2023-02-28T07:34:43;8.27;;;6.07;;
23678;SDS011;12016;51.668;6.874;2023-02-28T07:40:45;7.13;;;6.38;;
23678;SDS011;12016;51.668;6.874;2023-02-28T07:46:47;8.48;;;6.35;;
23678;SDS011;12016;51.668;6.874;2023-02-28T07:52:49;8.85;;;5.68;;
23678;SDS011;12016;51.668;6.874;2023-02-28T07:58:52;7.15;;;5.40;;
23678;SDS011;12016;51.668;6.874;2023-02-28T08:04:55;8.55;;;6.05;;
23678;SDS011;12016;51.668;6.874;2023-02-28T08:11:02;5.80;;;5.20;;
23678;SDS011;12016;51.668;6.874;2023-02-28T08:17:05;5.65;;;5.05;;
23678;SDS011;12016;51.668;6.874;2023-02-28T08:23:07;5.95;;;5.03;;
23678;SDS011;12016;51.668;6.874;2023-02-28T08:29:09;5.88;;;4.95;;
23678;SDS011;12016;51.668;6.874;2023-02-28T08:35:11;6.88;;;4.78;;
23678;SDS011;12016;51.668;6.874;2023-02-28T08:41:13;4.63;;;4.20;;
23678;SDS011;12016;51.668;6.874;2023-02-28T08:47:15;5.60;;;4.13;;
23678;SDS011;12016;51.668;6.874;2023-02-28T08:53:17;4.88;;;4.07;;
23678;SDS011;12016;51.668;6.874;2023-02-28T08:59:18;4.15;;;3.60;;
23678;SDS011;12016;51.668;6.874;2023-02-28T09:05:20;4.75;;;4.10;;
23678;SDS011;12016;51.668;6.874;2023-02-28T09:11:22;4.10;;;3.70;;
23678;SDS011;12016;51.668;6.874;2023-02-28T09:23:26;3.90;;;3.50;;
23678;SDS011;12016;51.668;6.874;2023-02-28T09:35:30;5.38;;;3.60;;
23678;SDS011;12016;51.668;6.874;2023-02-28T10:12:21;2.70;;;2.50;;
23678;SDS011;12016;51.668;6.874;2023-02-28T10:18:27;2.70;;;2.50;;
